LiveATC.Net - Listen to live air traffic control over the Internet!

ICAO: KTRI  IATA: TRI   Airport: Tri-Cities Regional Airport
City: Bristol/Johnson/Kingsport   State/Province: Tennessee
Country: United States   Continent: North America
KTRI METAR Weather: KTRI 271553Z 29003KT 10SM BKN037 BKN045 OVC060 17/11 A3027 RMK AO2 RAB26E49 SLP232 P0000 T01720111
KTRI Flight Activity (FlightAware)
KTRI Airport Info   (AirNav) (iFlightPlanner)
KTRI VFR Sectional Chart   (iFlightPlanner) 
KTRI IFR Low Chart   (iFlightPlanner) 
KTRI Gnd/Twr/App
Feed Status: UP   Listeners: 0
Listen right in your browser - requires Flash (in browser, requires Flash)
Click here to listen with your own player (launches your MP3 player)
KTRI Gnd/Twr/App Audio Archives
Tri-Cities Approach/Departure125.500
Tri-Cities Approach/Departure134.425
Tri-Cities Ground121.700
Tri-Cities Tower119.500


Unauthorized use prohibited. See Terms of Service

Find LiveATC Audio Streams

Airport/ARTCC Code

(e.g., 124.400, 128.75)
Site-wide search

Browse LiveATC Feeds
LiveATC Coverage Map
Top 50 LiveATC Feeds
Bad Weather Areas

Offer a LiveATC Feed
Press Inquiries

LiveATC on iPhone
LiveATC on Android

Windows Phone
Windows 8/10

LiveATC Mobile
(Mobile browser)

ATC Audio Archives
Interesting Recordings

LiveATC Forums

Home Page
Make a Donation
LiveATC Store

Terms of Use
Privacy Policy

Canadian Air Freqs


FAA Airport Status
Nat'l Airspace Status
Arrival Demand Charts

Server Software By: